sensor_id;sensor_type;location;lat;lon;timestamp;P1;durP1;ratioP1;P2;durP2;ratioP2
3881;SDS011;1956;53.482;10.238;2023-05-09T00:04:05;2.43;;;2.23;;
3881;SDS011;1956;53.482;10.238;2023-05-09T00:09:06;7.50;;;2.00;;
3881;SDS011;1956;53.482;10.238;2023-05-09T00:14:06;5.90;;;2.20;;
3881;SDS011;1956;53.482;10.238;2023-05-09T00:19:07;3.47;;;2.50;;
3881;SDS011;1956;53.482;10.238;2023-05-09T00:24:07;3.40;;;2.37;;
3881;SDS011;1956;53.482;10.238;2023-05-09T00:29:07;2.10;;;2.00;;
3881;SDS011;1956;53.482;10.238;2023-05-09T00:34:07;2.77;;;2.37;;
3881;SDS011;1956;53.482;10.238;2023-05-09T00:39:08;2.17;;;2.00;;
3881;SDS011;1956;53.482;10.238;2023-05-09T00:44:08;2.70;;;2.50;;
3881;SDS011;1956;53.482;10.238;2023-05-09T00:49:09;3.53;;;2.57;;
3881;SDS011;1956;53.482;10.238;2023-05-09T00:54:09;3.77;;;2.27;;
3881;SDS011;1956;53.482;10.238;2023-05-09T00:59:11;3.17;;;2.40;;
3881;SDS011;1956;53.482;10.238;2023-05-09T01:04:11;4.93;;;2.33;;
3881;SDS011;1956;53.482;10.238;2023-05-09T01:09:15;5.30;;;2.63;;
3881;SDS011;1956;53.482;10.238;2023-05-09T01:14:28;2.80;;;2.60;;
3881;SDS011;1956;53.482;10.238;2023-05-09T01:25:15;2.57;;;2.30;;
3881;SDS011;1956;53.482;10.238;2023-05-09T01:30:19;2.60;;;2.40;;
3881;SDS011;1956;53.482;10.238;2023-05-09T01:35:20;3.73;;;2.60;;
3881;SDS011;1956;53.482;10.238;2023-05-09T01:40:22;3.00;;;2.80;;
3881;SDS011;1956;53.482;10.238;2023-05-09T01:45:23;3.33;;;2.80;;
3881;SDS011;1956;53.482;10.238;2023-05-09T01:50:23;3.97;;;3.03;;
3881;SDS011;1956;53.482;10.238;2023-05-09T01:55:25;3.40;;;2.80;;
3881;SDS011;1956;53.482;10.238;2023-05-09T02:00:26;3.20;;;2.90;;
3881;SDS011;1956;53.482;10.238;2023-05-09T02:05:27;3.27;;;2.87;;
3881;SDS011;1956;53.482;10.238;2023-05-09T02:10:27;4.20;;;3.07;;
3881;SDS011;1956;53.482;10.238;2023-05-09T02:15:28;4.23;;;3.30;;
3881;SDS011;1956;53.482;10.238;2023-05-09T02:20:28;2.83;;;2.53;;
3881;SDS011;1956;53.482;10.238;2023-05-09T02:25:29;4.73;;;3.23;;
3881;SDS011;1956;53.482;10.238;2023-05-09T02:30:30;5.60;;;3.00;;
3881;SDS011;1956;53.482;10.238;2023-05-09T02:35:33;3.90;;;3.50;;
3881;SDS011;1956;53.482;10.238;2023-05-09T02:40:34;3.20;;;2.87;;
3881;SDS011;1956;53.482;10.238;2023-05-09T02:45:35;5.53;;;3.43;;
3881;SDS011;1956;53.482;10.238;2023-05-09T02:50:36;3.60;;;3.30;;
3881;SDS011;1956;53.482;10.238;2023-05-09T02:55:41;5.57;;;2.97;;
3881;SDS011;1956;53.482;10.238;2023-05-09T03:00:41;7.50;;;3.90;;
3881;SDS011;1956;53.482;10.238;2023-05-09T03:05:42;8.30;;;3.60;;
3881;SDS011;1956;53.482;10.238;2023-05-09T03:10:42;6.10;;;3.43;;
3881;SDS011;1956;53.482;10.238;2023-05-09T03:15:42;10.00;;;4.27;;
3881;SDS011;1956;53.482;10.238;2023-05-09T03:20:43;6.13;;;3.60;;
3881;SDS011;1956;53.482;10.238;2023-05-09T03:25:43;4.63;;;3.60;;
3881;SDS011;1956;53.482;10.238;2023-05-09T03:30:43;4.67;;;3.57;;
3881;SDS011;1956;53.482;10.238;2023-05-09T03:35:43;7.60;;;3.43;;
3881;SDS011;1956;53.482;10.238;2023-05-09T03:40:44;8.10;;;4.00;;
3881;SDS011;1956;53.482;10.238;2023-05-09T03:45:44;7.43;;;3.67;;
3881;SDS011;1956;53.482;10.238;2023-05-09T03:50:44;5.10;;;3.63;;
3881;SDS011;1956;53.482;10.238;2023-05-09T03:55:45;3.90;;;3.60;;
3881;SDS011;1956;53.482;10.238;2023-05-09T04:00:45;12.60;;;4.20;;
3881;SDS011;1956;53.482;10.238;2023-05-09T04:05:45;5.83;;;4.20;;
3881;SDS011;1956;53.482;10.238;2023-05-09T04:10:45;5.13;;;3.85;;
3881;SDS011;1956;53.482;10.238;2023-05-09T04:15:46;4.77;;;4.33;;
3881;SDS011;1956;53.482;10.238;2023-05-09T04:20:46;6.03;;;3.83;;
3881;SDS011;1956;53.482;10.238;2023-05-09T04:25:46;4.00;;;3.63;;
3881;SDS011;1956;53.482;10.238;2023-05-09T04:30:46;10.10;;;4.25;;
3881;SDS011;1956;53.482;10.238;2023-05-09T04:35:47;5.73;;;3.90;;
3881;SDS011;1956;53.482;10.238;2023-05-09T04:40:47;4.63;;;3.57;;
3881;SDS011;1956;53.482;10.238;2023-05-09T04:45:48;4.73;;;4.27;;
3881;SDS011;1956;53.482;10.238;2023-05-09T04:50:48;8.20;;;4.73;;
3881;SDS011;1956;53.482;10.238;2023-05-09T04:55:48;5.40;;;4.63;;
3881;SDS011;1956;53.482;10.238;2023-05-09T05:00:48;4.87;;;3.90;;
3881;SDS011;1956;53.482;10.238;2023-05-09T05:05:49;4.30;;;3.90;;
3881;SDS011;1956;53.482;10.238;2023-05-09T05:10:49;6.47;;;4.97;;
3881;SDS011;1956;53.482;10.238;2023-05-09T05:15:50;7.03;;;4.43;;
3881;SDS011;1956;53.482;10.238;2023-05-09T05:20:50;6.43;;;3.73;;
3881;SDS011;1956;53.482;10.238;2023-05-09T05:25:51;8.27;;;4.10;;
3881;SDS011;1956;53.482;10.238;2023-05-09T05:30:51;7.97;;;4.22;;
3881;SDS011;1956;53.482;10.238;2023-05-09T05:35:51;10.43;;;4.60;;
3881;SDS011;1956;53.482;10.238;2023-05-09T05:40:51;6.27;;;4.10;;
3881;SDS011;1956;53.482;10.238;2023-05-09T05:45:52;4.67;;;4.27;;
3881;SDS011;1956;53.482;10.238;2023-05-09T05:50:52;6.27;;;4.40;;
3881;SDS011;1956;53.482;10.238;2023-05-09T05:55:52;6.50;;;4.83;;
3881;SDS011;1956;53.482;10.238;2023-05-09T06:00:52;4.20;;;3.27;;
3881;SDS011;1956;53.482;10.238;2023-05-09T06:05:53;8.30;;;4.30;;
3881;SDS011;1956;53.482;10.238;2023-05-09T06:10:53;5.20;;;4.50;;
3881;SDS011;1956;53.482;10.238;2023-05-09T06:15:54;4.43;;;3.97;;
3881;SDS011;1956;53.482;10.238;2023-05-09T06:20:54;8.67;;;5.50;;
3881;SDS011;1956;53.482;10.238;2023-05-09T06:25:54;6.20;;;4.53;;
3881;SDS011;1956;53.482;10.238;2023-05-09T06:30:55;5.23;;;4.17;;
3881;SDS011;1956;53.482;10.238;2023-05-09T06:35:55;12.30;;;4.13;;
3881;SDS011;1956;53.482;10.238;2023-05-09T06:40:55;4.53;;;4.23;;
3881;SDS011;1956;53.482;10.238;2023-05-09T06:45:55;7.33;;;4.73;;
3881;SDS011;1956;53.482;10.238;2023-05-09T06:50:56;5.03;;;4.53;;
3881;SDS011;1956;53.482;10.238;2023-05-09T06:55:56;4.50;;;4.10;;
3881;SDS011;1956;53.482;10.238;2023-05-09T07:00:56;3.63;;;3.30;;
3881;SDS011;1956;53.482;10.238;2023-05-09T07:05:56;4.80;;;4.30;;
3881;SDS011;1956;53.482;10.238;2023-05-09T07:10:58;5.10;;;4.40;;
3881;SDS011;1956;53.482;10.238;2023-05-09T07:15:58;5.03;;;4.47;;
3881;SDS011;1956;53.482;10.238;2023-05-09T07:20:58;4.40;;;3.40;;
3881;SDS011;1956;53.482;10.238;2023-05-09T07:25:58;5.30;;;3.80;;
3881;SDS011;1956;53.482;10.238;2023-05-09T07:30:58;7.17;;;4.93;;
3881;SDS011;1956;53.482;10.238;2023-05-09T07:35:59;4.10;;;3.53;;
3881;SDS011;1956;53.482;10.238;2023-05-09T07:40:59;4.70;;;4.30;;
3881;SDS011;1956;53.482;10.238;2023-05-09T07:46:00;3.80;;;3.50;;
3881;SDS011;1956;53.482;10.238;2023-05-09T07:51:00;10.77;;;4.17;;
3881;SDS011;1956;53.482;10.238;2023-05-09T07:56:01;7.00;;;4.37;;
3881;SDS011;1956;53.482;10.238;2023-05-09T08:01:01;3.43;;;3.23;;
3881;SDS011;1956;53.482;10.238;2023-05-09T08:06:01;6.27;;;3.77;;
3881;SDS011;1956;53.482;10.238;2023-05-09T08:11:03;3.50;;;3.30;;
3881;SDS011;1956;53.482;10.238;2023-05-09T08:16:03;2.87;;;2.67;;
3881;SDS011;1956;53.482;10.238;2023-05-09T08:21:04;7.07;;;4.30;;
3881;SDS011;1956;53.482;10.238;2023-05-09T08:26:05;5.53;;;3.33;;
3881;SDS011;1956;53.482;10.238;2023-05-09T08:31:05;3.50;;;3.20;;
3881;SDS011;1956;53.482;10.238;2023-05-09T08:36:05;4.23;;;3.60;;
3881;SDS011;1956;53.482;10.238;2023-05-09T08:41:05;3.73;;;3.17;;
3881;SDS011;1956;53.482;10.238;2023-05-09T08:46:06;3.20;;;2.90;;
3881;SDS011;1956;53.482;10.238;2023-05-09T08:51:07;6.10;;;3.07;;
3881;SDS011;1956;53.482;10.238;2023-05-09T08:56:10;9.20;;;4.10;;
3881;SDS011;1956;53.482;10.238;2023-05-09T09:01:11;3.27;;;2.60;;
3881;SDS011;1956;53.482;10.238;2023-05-09T09:06:11;12.00;;;3.20;;
3881;SDS011;1956;53.482;10.238;2023-05-09T09:11:12;2.80;;;2.60;;
3881;SDS011;1956;53.482;10.238;2023-05-09T09:16:14;3.60;;;3.13;;
3881;SDS011;1956;53.482;10.238;2023-05-09T09:21:16;4.13;;;2.70;;
3881;SDS011;1956;53.482;10.238;2023-05-09T09:26:17;6.13;;;2.97;;
3881;SDS011;1956;53.482;10.238;2023-05-09T09:31:18;5.80;;;2.93;;
3881;SDS011;1956;53.482;10.238;2023-05-09T09:36:28;3.00;;;2.63;;
3881;SDS011;1956;53.482;10.238;2023-05-09T09:41:47;3.17;;;2.60;;
3881;SDS011;1956;53.482;10.238;2023-05-09T09:46:48;2.30;;;2.10;;
3881;SDS011;1956;53.482;10.238;2023-05-09T09:51:49;3.10;;;2.80;;
3881;SDS011;1956;53.482;10.238;2023-05-09T09:56:50;3.10;;;2.57;;
3881;SDS011;1956;53.482;10.238;2023-05-09T10:01:57;2.87;;;2.67;;
3881;SDS011;1956;53.482;10.238;2023-05-09T10:06:58;2.50;;;2.30;;
3881;SDS011;1956;53.482;10.238;2023-05-09T10:12:02;3.20;;;3.00;;
3881;SDS011;1956;53.482;10.238;2023-05-09T10:17:03;2.87;;;2.63;;
3881;SDS011;1956;53.482;10.238;2023-05-09T10:22:04;3.20;;;2.90;;
3881;SDS011;1956;53.482;10.238;2023-05-09T10:27:05;2.73;;;2.53;;
3881;SDS011;1956;53.482;10.238;2023-05-09T10:32:22;3.03;;;2.73;;
3881;SDS011;1956;53.482;10.238;2023-05-09T10:37:23;2.57;;;2.37;;
3881;SDS011;1956;53.482;10.238;2023-05-09T10:42:23;4.33;;;2.20;;
3881;SDS011;1956;53.482;10.238;2023-05-09T10:47:24;2.83;;;2.60;;
3881;SDS011;1956;53.482;10.238;2023-05-09T10:52:30;2.30;;;2.20;;
3881;SDS011;1956;53.482;10.238;2023-05-09T10:57:30;2.90;;;2.63;;
3881;SDS011;1956;53.482;10.238;2023-05-09T11:02:30;4.30;;;2.50;;
3881;SDS011;1956;53.482;10.238;2023-05-09T11:07:33;7.00;;;2.83;;
3881;SDS011;1956;53.482;10.238;2023-05-09T11:12:33;3.10;;;2.40;;
3881;SDS011;1956;53.482;10.238;2023-05-09T11:17:36;4.72;;;2.35;;
3881;SDS011;1956;53.482;10.238;2023-05-09T11:22:40;2.70;;;2.50;;
3881;SDS011;1956;53.482;10.238;2023-05-09T11:27:42;2.90;;;2.23;;
3881;SDS011;1956;53.482;10.238;2023-05-09T11:32:49;2.47;;;2.27;;
3881;SDS011;1956;53.482;10.238;2023-05-09T11:37:50;4.67;;;3.10;;
3881;SDS011;1956;53.482;10.238;2023-05-09T11:42:51;2.77;;;2.40;;
3881;SDS011;1956;53.482;10.238;2023-05-09T11:47:52;2.50;;;2.30;;
3881;SDS011;1956;53.482;10.238;2023-05-09T11:52:53;5.40;;;2.47;;
3881;SDS011;1956;53.482;10.238;2023-05-09T11:57:54;3.47;;;2.50;;
3881;SDS011;1956;53.482;10.238;2023-05-09T12:02:54;4.07;;;3.00;;
3881;SDS011;1956;53.482;10.238;2023-05-09T12:07:54;4.77;;;2.80;;
3881;SDS011;1956;53.482;10.238;2023-05-09T12:12:54;6.40;;;2.27;;
3881;SDS011;1956;53.482;10.238;2023-05-09T12:17:59;3.40;;;2.30;;
3881;SDS011;1956;53.482;10.238;2023-05-09T12:23:00;4.90;;;2.70;;
3881;SDS011;1956;53.482;10.238;2023-05-09T12:28:02;3.00;;;2.40;;
3881;SDS011;1956;53.482;10.238;2023-05-09T12:33:02;5.32;;;2.63;;
3881;SDS011;1956;53.482;10.238;2023-05-09T12:38:03;2.70;;;2.50;;
3881;SDS011;1956;53.482;10.238;2023-05-09T12:43:03;6.37;;;2.60;;
3881;SDS011;1956;53.482;10.238;2023-05-09T12:48:03;3.63;;;3.07;;
3881;SDS011;1956;53.482;10.238;2023-05-09T12:53:04;2.80;;;2.60;;
3881;SDS011;1956;53.482;10.238;2023-05-09T12:58:05;2.50;;;2.30;;
3881;SDS011;1956;53.482;10.238;2023-05-09T13:03:18;3.53;;;2.30;;
3881;SDS011;1956;53.482;10.238;2023-05-09T13:08:19;4.40;;;2.20;;
3881;SDS011;1956;53.482;10.238;2023-05-09T13:13:20;2.10;;;2.00;;
3881;SDS011;1956;53.482;10.238;2023-05-09T13:18:22;2.63;;;2.50;;
3881;SDS011;1956;53.482;10.238;2023-05-09T13:23:23;3.07;;;2.77;;
3881;SDS011;1956;53.482;10.238;2023-05-09T13:28:23;5.13;;;2.30;;
3881;SDS011;1956;53.482;10.238;2023-05-09T13:33:24;3.50;;;1.93;;
3881;SDS011;1956;53.482;10.238;2023-05-09T13:38:24;2.23;;;2.13;;
3881;SDS011;1956;53.482;10.238;2023-05-09T13:43:24;3.43;;;2.57;;
3881;SDS011;1956;53.482;10.238;2023-05-09T13:48:25;3.53;;;2.57;;
3881;SDS011;1956;53.482;10.238;2023-05-09T13:53:25;3.20;;;2.33;;
3881;SDS011;1956;53.482;10.238;2023-05-09T13:58:25;3.60;;;2.53;;
3881;SDS011;1956;53.482;10.238;2023-05-09T14:03:25;2.50;;;2.30;;
3881;SDS011;1956;53.482;10.238;2023-05-09T14:08:26;3.03;;;2.70;;
3881;SDS011;1956;53.482;10.238;2023-05-09T14:13:26;3.50;;;2.50;;
3881;SDS011;1956;53.482;10.238;2023-05-09T14:18:26;2.40;;;2.20;;
3881;SDS011;1956;53.482;10.238;2023-05-09T14:23:27;2.60;;;2.40;;
3881;SDS011;1956;53.482;10.238;2023-05-09T14:28:27;5.87;;;2.50;;
3881;SDS011;1956;53.482;10.238;2023-05-09T14:33:27;3.30;;;2.63;;
3881;SDS011;1956;53.482;10.238;2023-05-09T14:38:28;3.80;;;2.50;;
3881;SDS011;1956;53.482;10.238;2023-05-09T14:43:28;3.10;;;2.60;;
3881;SDS011;1956;53.482;10.238;2023-05-09T14:48:28;5.53;;;2.17;;
3881;SDS011;1956;53.482;10.238;2023-05-09T14:53:29;2.13;;;2.03;;
3881;SDS011;1956;53.482;10.238;2023-05-09T14:58:30;4.03;;;2.30;;
3881;SDS011;1956;53.482;10.238;2023-05-09T15:03:33;4.97;;;2.47;;
3881;SDS011;1956;53.482;10.238;2023-05-09T15:08:33;3.27;;;2.03;;
3881;SDS011;1956;53.482;10.238;2023-05-09T15:13:34;2.43;;;1.90;;
3881;SDS011;1956;53.482;10.238;2023-05-09T15:18:34;2.43;;;2.23;;
3881;SDS011;1956;53.482;10.238;2023-05-09T15:23:35;2.10;;;1.93;;
3881;SDS011;1956;53.482;10.238;2023-05-09T15:28:35;2.27;;;1.70;;
3881;SDS011;1956;53.482;10.238;2023-05-09T15:33:35;2.40;;;2.20;;
3881;SDS011;1956;53.482;10.238;2023-05-09T15:38:35;10.07;;;2.00;;
3881;SDS011;1956;53.482;10.238;2023-05-09T15:43:36;5.03;;;2.13;;
3881;SDS011;1956;53.482;10.238;2023-05-09T15:48:36;2.50;;;1.73;;
3881;SDS011;1956;53.482;10.238;2023-05-09T15:53:36;3.40;;;2.00;;
3881;SDS011;1956;53.482;10.238;2023-05-09T15:58:36;3.20;;;2.10;;
3881;SDS011;1956;53.482;10.238;2023-05-09T16:03:37;2.70;;;1.60;;
3881;SDS011;1956;53.482;10.238;2023-05-09T16:08:38;1.90;;;1.73;;
3881;SDS011;1956;53.482;10.238;2023-05-09T16:13:41;3.03;;;2.83;;
3881;SDS011;1956;53.482;10.238;2023-05-09T16:18:41;4.50;;;2.20;;
3881;SDS011;1956;53.482;10.238;2023-05-09T16:23:41;2.30;;;1.87;;
3881;SDS011;1956;53.482;10.238;2023-05-09T16:28:42;3.47;;;1.70;;
3881;SDS011;1956;53.482;10.238;2023-05-09T16:33:42;2.97;;;1.90;;
3881;SDS011;1956;53.482;10.238;2023-05-09T16:38:42;4.67;;;2.40;;
3881;SDS011;1956;53.482;10.238;2023-05-09T16:43:43;4.10;;;1.80;;
3881;SDS011;1956;53.482;10.238;2023-05-09T16:48:43;1.90;;;1.67;;
3881;SDS011;1956;53.482;10.238;2023-05-09T16:53:43;4.93;;;1.70;;
3881;SDS011;1956;53.482;10.238;2023-05-09T16:58:43;2.30;;;1.73;;
3881;SDS011;1956;53.482;10.238;2023-05-09T17:03:44;9.60;;;2.07;;
3881;SDS011;1956;53.482;10.238;2023-05-09T17:08:44;8.27;;;1.93;;
3881;SDS011;1956;53.482;10.238;2023-05-09T17:13:44;2.10;;;1.90;;
3881;SDS011;1956;53.482;10.238;2023-05-09T17:18:45;2.15;;;1.73;;
3881;SDS011;1956;53.482;10.238;2023-05-09T17:23:46;3.23;;;1.97;;
3881;SDS011;1956;53.482;10.238;2023-05-09T17:28:46;2.10;;;2.00;;
3881;SDS011;1956;53.482;10.238;2023-05-09T17:33:47;4.67;;;1.80;;
3881;SDS011;1956;53.482;10.238;2023-05-09T17:38:47;4.10;;;1.53;;
3881;SDS011;1956;53.482;10.238;2023-05-09T17:43:47;5.03;;;1.80;;
3881;SDS011;1956;53.482;10.238;2023-05-09T17:48:48;6.30;;;2.33;;
3881;SDS011;1956;53.482;10.238;2023-05-09T17:53:48;2.85;;;2.05;;
3881;SDS011;1956;53.482;10.238;2023-05-09T17:58:48;2.33;;;1.63;;
3881;SDS011;1956;53.482;10.238;2023-05-09T18:03:51;3.87;;;1.83;;
3881;SDS011;1956;53.482;10.238;2023-05-09T18:08:52;4.73;;;1.80;;
3881;SDS011;1956;53.482;10.238;2023-05-09T18:13:52;2.37;;;1.70;;
3881;SDS011;1956;53.482;10.238;2023-05-09T18:18:52;2.03;;;1.87;;
3881;SDS011;1956;53.482;10.238;2023-05-09T18:23:53;1.73;;;1.47;;
3881;SDS011;1956;53.482;10.238;2023-05-09T18:28:53;2.40;;;1.83;;
3881;SDS011;1956;53.482;10.238;2023-05-09T18:33:53;1.87;;;1.77;;
3881;SDS011;1956;53.482;10.238;2023-05-09T18:38:54;2.20;;;1.73;;
3881;SDS011;1956;53.482;10.238;2023-05-09T18:43:55;5.83;;;2.00;;
3881;SDS011;1956;53.482;10.238;2023-05-09T18:48:56;3.43;;;1.80;;
3881;SDS011;1956;53.482;10.238;2023-05-09T18:53:56;3.58;;;1.98;;
3881;SDS011;1956;53.482;10.238;2023-05-09T18:58:56;2.93;;;2.00;;
3881;SDS011;1956;53.482;10.238;2023-05-09T19:03:57;2.07;;;1.97;;
3881;SDS011;1956;53.482;10.238;2023-05-09T19:08:57;7.60;;;2.07;;
3881;SDS011;1956;53.482;10.238;2023-05-09T19:13:58;2.30;;;2.20;;
3881;SDS011;1956;53.482;10.238;2023-05-09T19:18:58;6.30;;;1.90;;
3881;SDS011;1956;53.482;10.238;2023-05-09T19:23:58;2.03;;;1.60;;
3881;SDS011;1956;53.482;10.238;2023-05-09T19:28:58;2.37;;;2.17;;
3881;SDS011;1956;53.482;10.238;2023-05-09T19:33:59;7.43;;;2.27;;
3881;SDS011;1956;53.482;10.238;2023-05-09T19:38:59;4.80;;;1.60;;
3881;SDS011;1956;53.482;10.238;2023-05-09T19:44:00;2.43;;;1.97;;
3881;SDS011;1956;53.482;10.238;2023-05-09T19:49:00;3.10;;;2.00;;
3881;SDS011;1956;53.482;10.238;2023-05-09T19:54:01;1.90;;;1.80;;
3881;SDS011;1956;53.482;10.238;2023-05-09T19:59:01;3.70;;;2.30;;
3881;SDS011;1956;53.482;10.238;2023-05-09T20:04:01;3.60;;;2.00;;
3881;SDS011;1956;53.482;10.238;2023-05-09T20:09:01;2.60;;;2.20;;
3881;SDS011;1956;53.482;10.238;2023-05-09T20:14:02;2.38;;;2.17;;
3881;SDS011;1956;53.482;10.238;2023-05-09T20:19:02;2.23;;;2.13;;
3881;SDS011;1956;53.482;10.238;2023-05-09T20:24:05;3.53;;;2.17;;
3881;SDS011;1956;53.482;10.238;2023-05-09T20:29:06;3.10;;;1.90;;
3881;SDS011;1956;53.482;10.238;2023-05-09T20:34:06;2.53;;;2.20;;
3881;SDS011;1956;53.482;10.238;2023-05-09T20:39:09;4.63;;;1.93;;
3881;SDS011;1956;53.482;10.238;2023-05-09T20:44:10;3.13;;;2.17;;
3881;SDS011;1956;53.482;10.238;2023-05-09T20:49:10;4.53;;;2.37;;
3881;SDS011;1956;53.482;10.238;2023-05-09T20:54:11;2.20;;;2.00;;
3881;SDS011;1956;53.482;10.238;2023-05-09T20:59:11;3.40;;;2.00;;
3881;SDS011;1956;53.482;10.238;2023-05-09T21:04:11;3.43;;;2.17;;
3881;SDS011;1956;53.482;10.238;2023-05-09T21:09:12;3.20;;;2.43;;
3881;SDS011;1956;53.482;10.238;2023-05-09T21:14:12;2.50;;;2.30;;
3881;SDS011;1956;53.482;10.238;2023-05-09T21:19:12;4.30;;;2.70;;
3881;SDS011;1956;53.482;10.238;2023-05-09T21:24:12;4.80;;;2.57;;
3881;SDS011;1956;53.482;10.238;2023-05-09T21:29:13;3.53;;;2.47;;
3881;SDS011;1956;53.482;10.238;2023-05-09T21:34:13;2.10;;;2.00;;
3881;SDS011;1956;53.482;10.238;2023-05-09T21:39:13;9.03;;;2.10;;
3881;SDS011;1956;53.482;10.238;2023-05-09T21:44:13;6.57;;;1.80;;
3881;SDS011;1956;53.482;10.238;2023-05-09T21:49:14;4.80;;;2.73;;
3881;SDS011;1956;53.482;10.238;2023-05-09T21:54:15;2.13;;;2.03;;
3881;SDS011;1956;53.482;10.238;2023-05-09T21:59:16;4.20;;;2.60;;
3881;SDS011;1956;53.482;10.238;2023-05-09T22:04:19;3.30;;;2.20;;
3881;SDS011;1956;53.482;10.238;2023-05-09T22:09:20;2.40;;;2.20;;
3881;SDS011;1956;53.482;10.238;2023-05-09T22:14:20;2.53;;;2.00;;
3881;SDS011;1956;53.482;10.238;2023-05-09T22:19:20;5.50;;;2.67;;
3881;SDS011;1956;53.482;10.238;2023-05-09T22:24:20;5.10;;;3.07;;
3881;SDS011;1956;53.482;10.238;2023-05-09T22:29:21;5.87;;;3.17;;
3881;SDS011;1956;53.482;10.238;2023-05-09T22:34:21;3.47;;;3.17;;
3881;SDS011;1956;53.482;10.238;2023-05-09T22:39:21;5.43;;;2.93;;
3881;SDS011;1956;53.482;10.238;2023-05-09T22:44:21;3.70;;;2.73;;
3881;SDS011;1956;53.482;10.238;2023-05-09T22:49:22;4.10;;;3.07;;
3881;SDS011;1956;53.482;10.238;2023-05-09T22:54:22;4.30;;;2.90;;
3881;SDS011;1956;53.482;10.238;2023-05-09T22:59:23;6.10;;;3.70;;
3881;SDS011;1956;53.482;10.238;2023-05-09T23:04:23;3.95;;;2.63;;
3881;SDS011;1956;53.482;10.238;2023-05-09T23:09:23;8.20;;;2.87;;
3881;SDS011;1956;53.482;10.238;2023-05-09T23:14:23;8.80;;;3.10;;
3881;SDS011;1956;53.482;10.238;2023-05-09T23:19:24;6.23;;;3.37;;
3881;SDS011;1956;53.482;10.238;2023-05-09T23:24:24;3.60;;;3.27;;
3881;SDS011;1956;53.482;10.238;2023-05-09T23:29:24;4.13;;;2.97;;
3881;SDS011;1956;53.482;10.238;2023-05-09T23:34:25;3.17;;;2.85;;
3881;SDS011;1956;53.482;10.238;2023-05-09T23:39:25;4.10;;;3.57;;
3881;SDS011;1956;53.482;10.238;2023-05-09T23:44:25;4.77;;;3.27;;
3881;SDS011;1956;53.482;10.238;2023-05-09T23:49:26;7.20;;;3.47;;
3881;SDS011;1956;53.482;10.238;2023-05-09T23:54:26;3.93;;;3.53;;
3881;SDS011;1956;53.482;10.238;2023-05-09T23:59:26;3.83;;;3.50;;
